createdAt,value
2022-10-09T07:32:12.709Z,1.70
2022-10-09T07:34:40.987Z,1.15
2022-10-09T07:37:11.672Z,2.22
2022-10-09T07:39:42.882Z,1.65
2022-10-09T07:42:13.144Z,1.40
2022-10-09T07:44:40.780Z,1.23
2022-10-09T07:47:08.580Z,0.90
2022-10-09T07:49:36.893Z,0.90
2022-10-09T07:52:04.685Z,1.30
2022-10-09T07:54:32.360Z,1.83
2022-10-09T07:57:00.553Z,1.60
2022-10-09T07:59:28.451Z,1.40
2022-10-09T08:01:56.314Z,1.83
2022-10-09T08:04:24.338Z,1.60
2022-10-09T08:06:52.138Z,1.40
2022-10-09T08:09:19.928Z,1.52
2022-10-09T08:11:47.982Z,1.37
2022-10-09T08:14:19.294Z,2.53
2022-10-09T08:16:48.684Z,1.60
2022-10-09T08:19:22.007Z,1.67
2022-10-09T08:21:50.312Z,1.42
2022-10-09T08:24:18.073Z,1.58
2022-10-09T08:26:46.016Z,2.00
2022-10-09T08:29:16.278Z,2.25
2022-10-09T08:31:44.116Z,1.30
2022-10-09T08:34:12.424Z,2.20
2022-10-09T08:36:43.604Z,2.90
2022-10-09T08:39:11.557Z,1.40
2022-10-09T08:41:48.966Z,1.50
2022-10-09T08:44:20.112Z,1.70
2022-10-09T08:46:54.923Z,1.75
2022-10-09T08:49:45.846Z,1.70
2022-10-09T08:52:45.707Z,1.62
2022-10-09T08:55:27.626Z,1.35
2022-10-09T08:58:04.766Z,1.60
2022-10-09T09:00:45.523Z,1.60
2022-10-09T09:03:50.826Z,1.08
2022-10-09T09:06:46.108Z,1.40
2022-10-09T09:09:29.012Z,1.55
2022-10-09T09:11:59.612Z,1.23
2022-10-09T09:14:40.497Z,1.83
2022-10-09T09:17:11.391Z,1.23
2022-10-09T09:19:51.508Z,1.30
2022-10-09T09:22:20.026Z,1.02
2022-10-09T09:24:56.730Z,1.20
2022-10-09T09:27:34.600Z,1.77
2022-10-09T09:30:15.520Z,1.58
2022-10-09T09:32:56.348Z,1.20
2022-10-09T09:35:41.657Z,1.50
2022-10-09T09:38:09.878Z,1.70
2022-10-09T09:40:39.295Z,1.92
2022-10-09T09:43:26.435Z,1.35
2022-10-09T09:45:57.276Z,1.30
2022-10-09T09:48:37.230Z,1.27
2022-10-09T09:51:27.337Z,1.42
2022-10-09T09:54:08.127Z,1.70
2022-10-09T09:59:41.885Z,1.67
2022-10-09T10:02:24.382Z,1.52
2022-10-09T10:05:00.415Z,1.37
2022-10-09T10:07:39.205Z,1.23
2022-10-09T10:10:24.015Z,1.05
2022-10-09T10:12:58.809Z,1.30
2022-10-09T10:15:32.497Z,1.40
2022-10-09T10:18:15.924Z,1.52
2022-10-09T10:20:47.728Z,0.90
2022-10-09T10:23:44.302Z,1.15
2022-10-09T10:26:49.651Z,1.50
2022-10-09T10:29:46.662Z,1.70
2022-10-09T10:32:29.649Z,1.45
2022-10-09T10:35:04.121Z,1.15
2022-10-09T10:38:13.612Z,1.48
2022-10-09T10:40:57.445Z,1.42
2022-10-09T10:43:33.018Z,2.00
2022-10-09T10:46:12.701Z,1.45
2022-10-09T10:48:48.728Z,1.35
2022-10-09T10:51:44.782Z,1.33
2022-10-09T10:54:36.536Z,1.33
2022-10-09T10:57:11.068Z,1.15
2022-10-09T10:59:45.700Z,1.12
2022-10-09T11:02:39.557Z,1.20
2022-10-09T11:05:49.595Z,1.10
2022-10-09T11:08:39.168Z,1.35
2022-10-09T11:11:28.409Z,1.10
2022-10-09T11:14:20.178Z,0.85
2022-10-09T11:17:07.410Z,1.20
2022-10-09T11:19:46.509Z,1.48
2022-10-09T11:22:25.089Z,1.50
2022-10-09T11:25:18.451Z,1.20
2022-10-09T11:28:22.164Z,1.60
2022-10-09T11:31:08.839Z,1.48
2022-10-09T11:33:45.669Z,1.55
2022-10-09T11:36:20.609Z,1.23
2022-10-09T11:39:16.440Z,1.50
2022-10-09T11:41:47.106Z,1.17
2022-10-09T11:44:15.387Z,1.58
2022-10-09T11:47:01.775Z,1.40
2022-10-09T11:49:35.969Z,1.17
2022-10-09T11:52:36.205Z,1.50
2022-10-09T11:55:18.576Z,1.70
2022-10-09T11:57:46.897Z,1.55
2022-10-09T12:00:17.105Z,1.50
2022-10-09T12:02:59.124Z,1.95
2022-10-09T12:05:43.739Z,1.08
2022-10-09T12:08:27.169Z,1.50
2022-10-09T12:13:37.017Z,1.40
2022-10-09T12:16:06.997Z,1.50
2022-10-09T12:18:38.019Z,1.30
2022-10-09T12:21:17.975Z,1.23
2022-10-09T12:23:47.706Z,1.60
2022-10-09T12:26:17.325Z,1.62
2022-10-09T12:29:02.341Z,1.98
2022-10-09T12:31:35.928Z,3.40
2022-10-09T12:34:21.926Z,2.62
2022-10-09T12:36:50.241Z,3.62
2022-10-09T12:39:23.962Z,3.10
2022-10-09T12:41:56.448Z,2.70
2022-10-09T12:44:31.491Z,2.28
2022-10-09T12:47:04.285Z,2.95
2022-10-09T12:49:32.372Z,1.92
2022-10-09T12:52:01.528Z,2.30
2022-10-09T12:54:31.783Z,2.25
2022-10-09T12:57:01.272Z,3.55
2022-10-09T12:59:33.647Z,2.40
2022-10-09T13:05:06.560Z,2.20
2022-10-09T13:07:34.495Z,3.58
2022-10-09T13:10:24.157Z,3.85
2022-10-09T13:12:57.714Z,3.83
2022-10-09T13:15:34.713Z,5.03
2022-10-09T13:18:23.571Z,4.75
2022-10-09T13:21:05.618Z,6.03
2022-10-09T13:23:35.754Z,3.55
2022-10-09T13:26:06.309Z,3.58
2022-10-09T13:28:38.390Z,1.98
2022-10-09T13:31:09.661Z,1.90
2022-10-09T13:33:37.941Z,2.00
2022-10-09T13:36:05.877Z,2.40
2022-10-09T13:38:35.193Z,1.55
2022-10-09T13:41:03.869Z,2.20
2022-10-09T13:43:31.741Z,1.92
2022-10-09T13:45:59.773Z,2.45
2022-10-09T13:48:39.726Z,2.20
2022-10-09T13:51:08.858Z,1.73
2022-10-09T13:53:36.948Z,2.00
2022-10-09T13:56:05.002Z,2.62
2022-10-09T13:58:33.079Z,1.98
2022-10-09T14:01:01.271Z,2.55
2022-10-09T14:03:29.376Z,2.92
2022-10-09T14:06:01.825Z,2.62
2022-10-09T14:08:30.569Z,2.17
2022-10-09T14:11:01.448Z,2.35
2022-10-09T14:13:29.531Z,1.67
2022-10-09T14:15:57.587Z,2.42
2022-10-09T14:18:28.543Z,2.08
2022-10-09T14:20:56.185Z,2.65
2022-10-09T14:23:27.261Z,2.50
2022-10-09T14:25:54.928Z,2.83
2022-10-09T14:28:22.803Z,2.62
2022-10-09T14:30:50.986Z,3.00
2022-10-09T14:33:18.662Z,3.20
2022-10-09T14:35:46.478Z,3.45
2022-10-09T14:38:14.582Z,3.65
2022-10-09T14:40:43.999Z,3.37
2022-10-09T14:43:12.339Z,3.10
2022-10-09T14:45:40.616Z,3.28
2022-10-09T14:48:08.995Z,3.10
2022-10-09T14:50:36.812Z,3.12
2022-10-09T14:53:05.232Z,3.40
2022-10-09T14:55:35.452Z,3.40
2022-10-09T14:58:03.153Z,3.83
2022-10-09T15:00:31.167Z,3.25
2022-10-09T15:02:59.798Z,2.80
2022-10-09T15:05:27.845Z,3.45
2022-10-09T15:07:55.995Z,3.28
2022-10-09T15:10:23.894Z,3.10
2022-10-09T15:12:54.479Z,3.17
2022-10-09T15:15:22.794Z,2.70
2022-10-09T15:17:50.773Z,2.65
2022-10-09T15:20:18.887Z,2.87
2022-10-09T15:22:47.247Z,3.55
2022-10-09T15:25:16.964Z,3.30
2022-10-09T15:27:44.873Z,3.28
2022-10-09T15:30:13.482Z,3.20
2022-10-09T15:32:41.340Z,3.83
2022-10-09T15:35:12.325Z,3.53
2022-10-09T15:37:41.033Z,5.40
2022-10-09T15:40:09.504Z,5.55
2022-10-09T15:42:40.613Z,5.07
2022-10-09T15:45:09.687Z,5.75
2022-10-09T15:47:50.421Z,4.72
2022-10-09T15:50:19.625Z,5.53
2022-10-09T15:52:47.768Z,9.40
2022-10-09T15:55:15.766Z,10.40
2022-10-09T15:57:47.219Z,8.95
2022-10-09T16:00:15.430Z,12.80
2022-10-09T16:02:43.701Z,11.73
2022-10-09T16:05:11.562Z,12.23
2022-10-09T16:07:39.430Z,9.90
2022-10-09T16:10:10.874Z,8.70
2022-10-09T16:12:44.365Z,7.82
2022-10-09T16:15:12.626Z,7.55
2022-10-09T16:17:40.473Z,9.57
2022-10-09T16:20:11.605Z,13.82
2022-10-09T16:22:39.811Z,15.57
2022-10-09T16:25:08.250Z,12.63
2022-10-09T16:27:36.243Z,19.52
2022-10-09T16:30:05.816Z,11.93
2022-10-09T16:32:33.618Z,20.83
2022-10-09T16:35:01.451Z,21.12
2022-10-09T16:37:30.294Z,9.05
2022-10-09T16:40:01.448Z,10.57
2022-10-09T16:42:30.873Z,15.73
2022-10-09T16:44:59.880Z,24.27
2022-10-09T16:47:27.931Z,14.48
2022-10-09T16:49:56.179Z,16.85
2022-10-09T16:52:24.009Z,18.52
2022-10-09T16:54:51.697Z,13.32
2022-10-09T16:57:19.884Z,17.52
2022-10-09T16:59:48.689Z,13.98
2022-10-09T17:02:17.161Z,9.32
2022-10-09T17:04:46.307Z,9.18
2022-10-09T17:07:15.318Z,9.68
2022-10-09T17:09:43.522Z,11.38
2022-10-09T17:12:13.367Z,11.55
2022-10-09T17:14:41.491Z,6.85
2022-10-09T17:17:11.026Z,6.15
2022-10-09T17:19:39.647Z,5.93
2022-10-09T17:22:07.486Z,5.10
2022-10-09T17:24:35.616Z,4.68
2022-10-09T17:27:05.213Z,5.45
2022-10-09T17:29:33.047Z,6.05
2022-10-09T17:32:00.809Z,5.85
2022-10-09T17:34:29.462Z,5.10
2022-10-09T17:36:57.244Z,8.75
2022-10-09T17:39:24.945Z,7.03
2022-10-09T17:41:53.046Z,5.03
2022-10-09T17:44:23.820Z,4.85
2022-10-09T17:46:51.536Z,4.12
2022-10-09T17:49:19.584Z,4.75
2022-10-09T17:51:48.547Z,5.03
2022-10-09T17:54:17.585Z,5.10
2022-10-09T17:56:46.001Z,6.28
2022-10-09T18:02:01.455Z,6.97
2022-10-09T18:04:29.578Z,6.12
2022-10-09T18:06:57.326Z,7.65
2022-10-09T18:09:25.244Z,13.73
2022-10-09T18:11:53.340Z,7.10
2022-10-09T18:14:21.058Z,7.22
2022-10-09T18:16:48.895Z,6.93
2022-10-09T18:19:20.668Z,6.55
2022-10-09T18:21:50.310Z,5.15
2022-10-09T18:24:18.756Z,5.03
2022-10-09T18:26:46.664Z,5.30
2022-10-09T18:29:14.405Z,4.82
2022-10-09T18:31:42.867Z,3.72
2022-10-09T18:34:11.013Z,3.85
2022-10-09T18:36:39.653Z,4.55
2022-10-09T18:39:13.676Z,4.10
2022-10-09T18:41:42.410Z,3.45
2022-10-09T18:44:17.731Z,3.87
2022-10-09T18:46:51.170Z,3.70
2022-10-09T18:49:25.274Z,3.60
2022-10-09T18:51:53.328Z,3.80
2022-10-09T18:54:24.558Z,4.18
2022-10-09T18:56:53.279Z,5.35
2022-10-09T18:59:22.790Z,5.82
2022-10-09T19:01:50.577Z,4.62
2022-10-09T19:04:19.303Z,5.00
2022-10-09T19:06:47.568Z,4.70
2022-10-09T19:09:15.941Z,4.45
2022-10-09T19:11:43.773Z,4.82
2022-10-09T19:14:11.930Z,4.45
2022-10-09T19:16:40.108Z,5.03
2022-10-09T19:19:08.199Z,5.70
2022-10-09T19:21:38.253Z,5.05
2022-10-09T19:24:07.376Z,5.22
2022-10-09T19:26:35.607Z,5.50
2022-10-09T19:29:05.687Z,7.18
2022-10-09T19:31:35.151Z,6.45
2022-10-09T19:34:05.354Z,7.32
2022-10-09T19:36:35.360Z,6.25
2022-10-09T19:39:05.243Z,7.40
2022-10-09T19:41:36.327Z,7.18
2022-10-09T19:44:04.707Z,5.35
2022-10-09T19:46:32.641Z,5.85
2022-10-09T19:49:01.534Z,5.60
2022-10-09T19:51:29.733Z,4.90
2022-10-09T19:53:59.430Z,6.10
2022-10-09T19:56:30.619Z,5.75
2022-10-09T19:59:02.775Z,6.00
2022-10-09T20:01:33.114Z,5.57
2022-10-09T20:04:07.997Z,6.47
2022-10-09T20:06:41.075Z,6.70
2022-10-09T20:09:11.914Z,6.35
2022-10-09T20:11:40.093Z,5.35
2022-10-09T20:14:09.567Z,5.97
2022-10-09T20:16:38.416Z,5.68
2022-10-09T20:19:07.051Z,5.72
2022-10-09T20:21:35.176Z,5.03
2022-10-09T20:24:03.432Z,6.32
2022-10-09T20:26:33.388Z,5.05
2022-10-09T20:29:01.217Z,5.60
2022-10-09T20:31:30.523Z,7.00
2022-10-09T20:34:01.633Z,8.27
2022-10-09T20:36:38.491Z,10.30
2022-10-09T20:39:12.227Z,7.47
2022-10-09T20:41:41.617Z,9.50
2022-10-09T20:44:11.495Z,9.23
2022-10-09T20:46:39.952Z,9.27
2022-10-09T20:49:15.484Z,10.05
2022-10-09T20:51:43.631Z,8.32
2022-10-09T20:54:16.675Z,11.73
2022-10-09T20:56:47.344Z,11.85
2022-10-09T20:59:16.158Z,11.05
2022-10-09T21:01:43.932Z,10.45
2022-10-09T21:04:12.517Z,10.43
2022-10-09T21:06:42.088Z,9.88
2022-10-09T21:09:13.214Z,9.82
2022-10-09T21:11:41.926Z,9.43
2022-10-09T21:14:10.735Z,9.05
2022-10-09T21:16:38.680Z,9.30
2022-10-09T21:19:06.987Z,9.90
2022-10-09T21:21:35.163Z,9.63
2022-10-09T21:24:03.849Z,10.43
2022-10-09T21:26:37.888Z,9.10
2022-10-09T21:29:06.228Z,7.75
2022-10-09T21:31:34.613Z,9.30
2022-10-09T21:34:02.844Z,10.20
2022-10-09T21:37:02.169Z,9.85
2022-10-09T21:39:31.826Z,10.05
2022-10-09T21:41:59.619Z,9.07
2022-10-09T21:44:27.967Z,9.60
2022-10-09T21:46:56.453Z,8.70
2022-10-09T21:49:27.508Z,8.95
2022-10-09T21:51:56.081Z,8.45
2022-10-09T21:54:25.094Z,8.38
2022-10-09T21:56:52.944Z,9.18
2022-10-09T21:59:23.836Z,9.77
2022-10-09T22:01:51.913Z,9.23
2022-10-09T22:04:20.278Z,7.47
2022-10-09T22:06:48.078Z,8.98
2022-10-09T22:09:15.774Z,7.85
2022-10-09T22:11:45.251Z,10.23
2022-10-09T22:14:13.355Z,8.85
2022-10-09T22:16:44.291Z,8.95
2022-10-09T22:19:12.603Z,8.32
2022-10-09T22:21:40.560Z,10.07
2022-10-09T22:24:08.458Z,10.82
2022-10-09T22:26:36.796Z,9.90
2022-10-09T22:29:04.607Z,8.55
2022-10-09T22:31:32.441Z,9.00
2022-10-09T22:34:01.987Z,8.48
2022-10-09T22:36:33.249Z,9.32
2022-10-09T22:39:08.156Z,9.77
2022-10-09T22:41:36.468Z,8.35
2022-10-09T22:44:06.782Z,8.95
2022-10-09T22:46:40.872Z,8.32
2022-10-09T22:49:12.137Z,8.00
2022-10-09T22:51:40.067Z,8.30
2022-10-09T22:54:12.864Z,8.32
2022-10-09T22:56:43.881Z,8.18
2022-10-09T22:59:15.337Z,8.35
2022-10-09T23:01:48.712Z,9.48
2022-10-09T23:04:18.474Z,7.62
2022-10-09T23:06:50.762Z,7.72
2022-10-09T23:09:19.101Z,7.18
2022-10-09T23:11:47.388Z,8.30
2022-10-09T23:14:15.228Z,8.55
2022-10-09T23:16:43.521Z,8.55
2022-10-09T23:19:12.391Z,6.95
2022-10-09T23:21:42.339Z,6.65
2022-10-09T23:24:12.723Z,8.23
2022-10-09T23:26:41.225Z,7.45
2022-10-09T23:29:14.797Z,8.23
2022-10-09T23:31:43.612Z,7.97
2022-10-09T23:34:11.997Z,9.57
2022-10-09T23:36:39.746Z,8.75
2022-10-09T23:39:08.158Z,8.93
2022-10-09T23:41:36.450Z,10.13
2022-10-09T23:44:04.342Z,11.05
2022-10-09T23:46:37.878Z,9.00
2022-10-09T23:49:06.131Z,10.55
2022-10-09T23:51:34.418Z,11.05
2022-10-09T23:54:02.240Z,9.32
2022-10-09T23:56:33.970Z,10.40
2022-10-09T23:59:07.495Z,10.13
